General Aviation Weather

Text Reports

Enter one or more of the following location identifiers separated by a space:

Zip Code, Four-Character ICAO or Three-Character IATA airport codes.

METAR - Aviation Routine Weather Report
KFWN - Sussex, New Jersey
Updated at 6:53 PM GMT on December 26, 2014 (1:53 PM EST):
METAR KFWN 261853Z AUTO 00000KT 10SM CLR 09/M02 A3018 RMK AO2 SLP221 T00941022
TAF - Terminal Area Forecast
KFWN - Sussex, New Jersey
Updated at 6:53 PM GMT on December 26, 2014 (1:53 PM EST):
No TAF is currently available for this location.
Decoded:
No decoded TAF is available.
PIREP - Pilot Weather Report
KFWN - Sussex, New Jersey
Updated at 6:53 PM GMT on December 26, 2014 (1:53 PM EST):
No PIREP is currently available for this location.
AIRMET - Airmens Meteorological Information
KFWN - Sussex, New Jersey
Updated at 6:53 PM GMT on December 26, 2014 (1:53 PM EST):
No AIRMET is currently available for this location.
SIGMET - Significant Meteorological Information
KFWN - Sussex, New Jersey
Updated at 6:53 PM GMT on December 26, 2014 (1:53 PM EST):
No SIGMET is currently available for this location.
NOTAM - Notice to Airmen
KFWN - Sussex, New Jersey
Updated at 6:53 PM GMT on December 26, 2014 (1:53 PM EST):
No NOTAM is currently available for this location.
Forecast Area
KFWN - Sussex, New Jersey
Updated at 6:53 PM GMT on December 26, 2014 (1:53 PM EST):
No NOTAM is currently available for this location.
Aviation Weather Maps